Time;durP1;ratioP1;P1;durP2;ratioP2;P2;SDS_P1;SDS_P2;PMS_P1;PMS_P2;Temp;Humidity;BMP_temperature;BMP_pressure;BME280_temperature;BME280_humidity;BME280_pressure;Samples;Min_cycle;Max_cycle;Signal;HPM_P1;HPM_P2
2022/10/16 00:01:54;;;;;;;5.67;2.20;;;;;;;27.80;44.98;99417.22;4168683;28;20233;-64
2022/10/16 00:03:58;;;;;;;3.03;2.30;;;;;;;26.81;45.42;99468.81;4173429;28;20636;-64
2022/10/16 00:06:00;;;;;;;3.23;2.50;;;;;;;27.68;44.82;99410.44;4175057;28;20234;-64
2022/10/16 00:08:02;;;;;;;4.23;2.23;;;;;;;28.02;44.23;99390.56;4174005;28;20254;-64
2022/10/16 00:10:04;;;;;;;3.03;2.53;;;;;;;28.06;43.55;99386.97;4176449;28;20315;-63
2022/10/16 00:12:06;;;;;;;3.23;2.50;;;;;;;28.11;43.76;99391.59;4179000;28;20228;-65
2022/10/16 00:14:12;;;;;;;5.17;2.30;;;;;;;27.93;43.99;99426.69;4180501;28;20236;-63
2022/10/16 00:16:15;;;;;;;2.60;2.20;;;;;;;28.41;43.62;99379.63;4168255;28;20322;-63
2022/10/16 00:18:16;;;;;;;3.87;2.60;;;;;;;26.05;47.54;99486.69;4180803;28;20699;-66
2022/10/16 00:20:18;;;;;;;5.63;2.33;;;;;;;24.42;50.36;99520.69;4188480;28;20238;-66
2022/10/16 00:22:19;;;;;;;2.90;2.17;;;;;;;26.74;46.63;99411.81;4168972;28;20554;-64
2022/10/16 00:24:21;;;;;;;2.47;2.27;;;;;;;27.43;45.05;99382.13;4186630;28;20253;-64
2022/10/16 00:26:23;;;;;;;3.27;2.50;;;;;;;27.91;44.63;99387.91;4187103;28;20746;-63
2022/10/16 00:28:25;;;;;;;3.73;2.47;;;;;;;27.17;45.51;99423.19;4186942;28;20261;-64
2022/10/16 00:30:27;;;;;;;6.37;2.43;;;;;;;28.17;43.52;99365.88;4164492;28;20251;-66
2022/10/16 00:32:29;;;;;;;8.20;2.70;;;;;;;27.76;44.30;99404.41;4164795;28;20239;-64
2022/10/16 00:34:31;;;;;;;2.40;2.20;;;;;;;26.87;45.77;99465.78;4180647;28;20309;-64
2022/10/16 00:36:32;;;;;;;4.63;2.23;;;;;;;25.72;47.53;99505.88;4174388;28;20466;-65
2022/10/16 00:38:34;;;;;;;4.00;2.23;;;;;;;26.69;46.81;99431.72;4180885;28;20277;-65
2022/10/16 00:40:36;;;;;;;3.40;2.40;;;;;;;27.80;44.18;99359.00;4180070;28;20239;-65
2022/10/16 00:42:38;;;;;;;2.70;2.20;;;;;;;27.70;44.52;99406.34;4187232;28;20601;-65
2022/10/16 00:44:44;;;;;;;3.10;2.20;;;;;;;26.29;45.75;99465.22;4169781;28;20860;-63
2022/10/16 00:46:45;;;;;;;4.30;2.27;;;;;;;26.53;46.51;99471.78;4172845;28;20239;-63
2022/10/16 00:48:50;;;;;;;7.93;2.13;;;;;;;27.69;44.46;99401.97;4176145;28;20651;-63
2022/10/16 00:50:53;;;;;;;3.27;1.93;;;;;;;25.99;47.33;99493.22;4179301;28;20732;-64
2022/10/16 00:52:55;;;;;;;4.70;2.20;;;;;;;27.17;45.54;99401.34;4170477;28;20231;-63
2022/10/16 00:54:58;;;;;;;4.53;2.00;;;;;;;27.09;45.87;99426.47;4183423;28;20237;-64
2022/10/16 00:57:03;;;;;;;4.40;2.10;;;;;;;27.57;44.71;99398.75;4179242;28;20240;-64
2022/10/16 00:59:11;;;;;;;6.07;2.20;;;;;;;27.55;44.30;99409.94;4168781;28;20243;-63
2022/10/16 01:01:13;;;;;;;2.53;2.23;;;;;;;26.42;46.12;99466.56;4178979;28;20238;-63
2022/10/16 01:03:25;;;;;;;3.97;2.07;;;;;;;26.71;46.34;99445.91;4166487;28;20235;-63
2022/10/16 01:05:41;;;;;;;3.03;1.90;;;;;;;26.93;45.53;99436.59;4180135;28;20521;-64
2022/10/16 01:08:03;;;;;;;3.43;2.30;;;;;;;26.71;45.52;99454.06;4175810;28;20235;-63
2022/10/16 01:10:13;;;;;;;2.90;1.90;;;;;;;27.32;45.11;99422.31;4179098;28;20226;-66
2022/10/16 01:12:30;;;;;;;2.73;1.90;;;;;;;26.31;45.32;99484.84;4180850;28;20230;-62
2022/10/16 01:14:37;;;;;;;3.50;2.30;;;;;;;24.96;49.16;99520.66;4152844;28;20317;-63
2022/10/16 01:17:02;;;;;;;3.20;1.90;;;;;;;27.14;45.28;99426.47;4175457;28;21866;-63
2022/10/16 01:19:06;;;;;;;3.83;2.40;;;;;;;26.82;45.39;99448.59;4174253;28;20226;-66
2022/10/16 01:21:27;;;;;;;2.57;2.20;;;;;;;25.43;48.62;99502.75;4179262;28;20229;-62
2022/10/16 01:23:47;;;;;;;5.43;1.80;;;;;;;26.30;47.34;99434.97;4166983;28;20751;-64
2022/10/16 01:26:07;;;;;;;3.37;1.97;;;;;;;26.43;46.73;99443.69;4171779;28;20231;-63
2022/10/16 01:28:12;;;;;;;2.83;2.07;;;;;;;24.74;49.70;99498.16;4183622;28;20229;-63
2022/10/16 01:30:20;;;;;;;3.37;2.17;;;;;;;26.15;47.12;99415.88;4169373;28;20350;-63
2022/10/16 01:32:45;;;;;;;2.83;2.20;;;;;;;26.54;46.56;99404.47;4178943;28;20232;-63
2022/10/16 01:34:49;;;;;;;4.43;1.97;;;;;;;26.07;46.92;99440.94;4167104;28;20231;-64
2022/10/16 01:36:57;;;;;;;2.50;2.07;;;;;;;23.93;50.56;99489.72;4163892;28;20219;-63
2022/10/16 01:39:01;;;;;;;5.37;1.83;;;;;;;26.86;45.89;99367.88;4170430;28;20233;-63
2022/10/16 01:41:19;;;;;;;2.10;1.90;;;;;;;24.28;49.42;99490.41;4180122;28;20254;-64
2022/10/16 01:43:33;;;;;;;4.87;1.90;;;;;;;24.27;49.85;99486.03;4173419;28;20633;-63
2022/10/16 01:45:36;;;;;;;3.63;1.93;;;;;;;24.99;48.60;99484.78;4166356;28;20768;-64
2022/10/16 01:47:40;;;;;;;3.20;2.10;;;;;;;26.52;47.00;99388.38;4176860;28;20256;-64
2022/10/16 01:49:44;;;;;;;1.90;1.77;;;;;;;27.10;45.95;99357.19;4174384;28;20239;-64
2022/10/16 01:51:51;;;;;;;3.67;2.27;;;;;;;27.53;44.71;99379.34;4164868;28;20258;-64
2022/10/16 01:53:57;;;;;;;3.87;2.20;;;;;;;27.09;45.17;99421.03;4174981;28;20258;-63
2022/10/16 01:56:01;;;;;;;6.27;2.40;;;;;;;27.34;44.78;99414.66;4167471;28;20306;-66
2022/10/16 01:58:05;;;;;;;3.90;2.50;;;;;;;26.14;46.18;99485.88;4168764;28;20930;-64
2022/10/16 02:00:13;;;;;;;3.27;2.00;;;;;;;26.61;46.20;99451.34;4181197;28;20329;-63
2022/10/16 02:02:17;;;;;;;7.37;2.30;;;;;;;27.04;45.08;99430.03;4188321;28;20230;-63
2022/10/16 02:04:27;;;;;;;5.47;2.20;;;;;;;26.13;47.34;99481.53;4179517;28;20236;-63
2022/10/16 02:06:29;;;;;;;2.53;2.20;;;;;;;26.73;46.00;99440.16;4164089;28;20249;-66
2022/10/16 02:08:32;;;;;;;3.57;2.33;;;;;;;26.63;46.10;99457.34;4178431;28;20241;-64
2022/10/16 02:10:36;;;;;;;4.00;2.60;;;;;;;27.40;44.73;99421.75;4173973;28;20243;-64
2022/10/16 02:12:43;;;;;;;3.33;2.40;;;;;;;26.71;45.57;99451.34;4188610;28;20291;-66
2022/10/16 02:14:44;;;;;;;7.80;2.00;;;;;;;26.34;46.60;99468.75;4171201;28;20228;-63
2022/10/16 02:16:46;;;;;;;5.17;2.30;;;;;;;27.06;44.99;99433.31;4176620;28;20229;-63
2022/10/16 02:18:48;;;;;;;4.43;2.50;;;;;;;26.47;46.35;99470.16;4176498;28;20231;-66
2022/10/16 02:20:56;;;;;;;3.33;2.60;;;;;;;26.67;45.53;99450.28;4173359;28;20235;-66
2022/10/16 02:22:58;;;;;;;2.33;2.10;;;;;;;26.87;45.03;99448.59;4166546;28;20244;-63
2022/10/16 02:25:09;;;;;;;3.33;2.23;;;;;;;26.74;46.07;99460.06;4171671;28;20326;-63
2022/10/16 02:27:45;;;;;;;4.63;2.60;;;;;;;26.63;46.29;99468.25;4177622;28;20224;-65
2022/10/16 02:29:54;;;;;;;4.50;2.53;;;;;;;27.19;44.73;99451.00;4165714;28;20330;-65
2022/10/16 02:32:00;;;;;;;3.27;2.10;;;;;;;26.86;45.38;99469.59;4184993;28;20240;-65
2022/10/16 02:34:05;;;;;;;2.17;2.00;;;;;;;27.23;44.65;99441.19;4181339;28;20233;-63
2022/10/16 02:36:07;;;;;;;2.57;2.00;;;;;;;26.03;46.58;99510.66;4181919;28;20907;-63
2022/10/16 02:38:10;;;;;;;4.17;2.10;;;;;;;27.31;44.76;99430.78;4169812;28;20416;-65
2022/10/16 02:40:12;;;;;;;4.37;2.47;;;;;;;27.41;44.79;99428.00;4168633;28;20676;-62
2022/10/16 02:42:14;;;;;;;2.80;2.30;;;;;;;27.44;44.25;99447.38;4174070;28;20793;-65
2022/10/16 02:44:16;;;;;;;2.60;2.00;;;;;;;27.39;44.24;99446.59;4171738;28;20230;-63
2022/10/16 02:46:18;;;;;;;6.33;2.37;;;;;;;26.67;45.22;99499.34;4170040;28;20723;-63
2022/10/16 02:48:20;;;;;;;6.87;2.33;;;;;;;26.47;46.21;99470.16;4172662;28;20261;-63
2022/10/16 02:50:22;;;;;;;6.47;2.60;;;;;;;26.89;45.07;99463.63;4173987;28;20241;-66
2022/10/16 02:52:23;;;;;;;3.43;2.17;;;;;;;26.94;45.37;99456.50;4166949;28;20597;-66
2022/10/16 02:54:25;;;;;;;5.27;2.50;;;;;;;27.76;43.81;99421.59;4175902;28;20703;-65
2022/10/16 02:56:27;;;;;;;3.40;2.10;;;;;;;27.54;43.68;99449.25;4164843;28;20219;-63
2022/10/16 02:58:29;;;;;;;3.13;2.53;;;;;;;27.47;44.04;99440.56;4181673;28;20317;-65
2022/10/16 03:00:30;;;;;;;3.83;2.10;;;;;;;26.47;45.96;99521.94;4171409;28;20249;-62
2022/10/16 03:02:32;;;;;;;4.80;2.03;;;;;;;27.34;44.72;99469.25;4166145;28;20518;-63
2022/10/16 03:04:33;;;;;;;5.53;2.63;;;;;;;27.66;44.00;99453.63;4178492;28;20310;-65
2022/10/16 03:06:35;;;;;;;3.93;2.23;;;;;;;27.66;44.00;99445.41;4166235;28;20504;-62
2022/10/16 03:08:37;;;;;;;2.37;2.17;;;;;;;27.93;43.58;99417.66;4181108;28;20321;-63
2022/10/16 03:10:38;;;;;;;3.33;2.00;;;;;;;27.80;43.86;99438.22;4168215;28;20234;-63
2022/10/16 03:12:40;;;;;;;3.57;2.30;;;;;;;26.92;45.28;99489.50;4176003;28;20659;-63
2022/10/16 03:14:42;;;;;;;8.53;2.33;;;;;;;26.29;46.27;99506.09;4175975;28;20317;-63
2022/10/16 03:16:43;;;;;;;3.60;2.30;;;;;;;27.31;44.72;99445.25;4167615;28;20325;-64
2022/10/16 03:18:49;;;;;;;3.63;2.40;;;;;;;27.74;44.17;99429.25;4166056;28;20333;-64
2022/10/16 03:20:50;;;;;;;3.80;2.40;;;;;;;26.69;45.08;99491.72;4177334;28;20276;-64
2022/10/16 03:22:52;;;;;;;2.90;2.60;;;;;;;26.92;45.49;99451.31;4169697;28;20867;-64
2022/10/16 03:24:54;;;;;;;2.87;2.50;;;;;;;27.39;44.21;99441.94;4154579;28;20330;-64
2022/10/16 03:26:55;;;;;;;3.63;2.20;;;;;;;26.43;46.49;99460.03;4167614;28;20313;-64
2022/10/16 03:28:57;;;;;;;2.87;2.53;;;;;;;25.74;46.93;99508.34;4161321;28;20223;-64
2022/10/16 03:30:59;;;;;;;3.10;2.40;;;;;;;27.26;44.46;99423.41;4170011;28;20235;-64
2022/10/16 03:33:00;;;;;;;4.70;2.40;;;;;;;27.55;44.18;99437.25;4166966;28;20238;-64
2022/10/16 03:35:02;;;;;;;4.37;2.37;;;;;;;27.80;43.68;99436.34;4166358;28;20227;-64
2022/10/16 03:37:04;;;;;;;2.80;2.53;;;;;;;27.40;44.29;99484.53;4186179;28;20234;-63
2022/10/16 03:39:05;;;;;;;2.93;2.10;;;;;;;27.27;44.32;99487.84;4182213;28;20710;-64
2022/10/16 03:41:07;;;;;;;5.33;2.43;;;;;;;27.51;43.88;99459.91;4168123;28;20235;-64
2022/10/16 03:43:09;;;;;;;5.13;2.50;;;;;;;27.07;45.01;99494.16;4160949;28;20589;-63
2022/10/16 03:45:11;;;;;;;4.07;2.27;;;;;;;27.05;44.55;99486.22;4180882;28;20238;-63
2022/10/16 03:47:12;;;;;;;3.73;2.40;;;;;;;27.42;44.21;99468.69;4177379;28;20331;-64
2022/10/16 03:49:14;;;;;;;3.90;2.53;;;;;;;27.60;44.41;99461.81;4172384;28;20239;-64
2022/10/16 03:51:16;;;;;;;5.27;2.43;;;;;;;27.07;45.04;99481.31;4187492;28;20250;-64
2022/10/16 03:53:17;;;;;;;4.17;2.50;;;;;;;27.55;44.55;99444.59;4172528;28;20393;-64
2022/10/16 03:55:19;;;;;;;2.70;2.10;;;;;;;28.15;43.67;99406.34;4176056;28;20852;-65
2022/10/16 03:57:21;;;;;;;5.80;3.17;;;;;;;27.67;43.62;99474.34;4172022;28;20756;-64
2022/10/16 03:59:22;;;;;;;3.90;3.20;;;;;;;27.96;43.53;99456.19;4171190;28;20686;-63
2022/10/16 04:01:24;;;;;;;7.73;3.10;;;;;;;28.05;42.89;99453.66;4181347;28;20207;-64
2022/10/16 04:03:26;;;;;;;4.93;2.70;;;;;;;26.82;44.74;99527.69;4165858;28;20484;-64
2022/10/16 04:05:27;;;;;;;4.77;2.70;;;;;;;27.11;44.90;99481.59;4174549;28;20488;-64
2022/10/16 04:07:29;;;;;;;4.17;2.20;;;;;;;27.55;44.48;99448.16;4170661;28;20425;-64
2022/10/16 04:09:30;;;;;;;5.07;2.67;;;;;;;27.77;43.82;99444.25;4158411;28;20535;-64
2022/10/16 04:11:32;;;;;;;5.00;2.57;;;;;;;27.27;44.77;99496.03;4179168;28;20211;-64
2022/10/16 04:13:34;;;;;;;2.63;2.40;;;;;;;27.93;43.30;99454.00;4173441;28;20237;-64
2022/10/16 04:15:35;;;;;;;5.43;2.73;;;;;;;27.89;43.64;99469.34;4171318;28;20688;-63
2022/10/16 04:17:37;;;;;;;4.30;2.67;;;;;;;27.90;43.06;99465.50;4187411;28;20540;-64
2022/10/16 04:19:38;;;;;;;3.50;2.40;;;;;;;27.79;43.49;99496.72;4169388;28;20211;-64
2022/10/16 04:21:40;;;;;;;5.03;2.70;;;;;;;27.55;44.11;99508.25;4180146;28;20226;-66
2022/10/16 04:23:42;;;;;;;3.50;2.47;;;;;;;28.39;42.92;99450.16;4188412;28;20211;-63
2022/10/16 04:25:44;;;;;;;4.03;2.47;;;;;;;28.10;43.34;99480.13;4179115;28;20251;-63
2022/10/16 04:27:46;;;;;;;6.40;2.60;;;;;;;28.26;42.98;99465.31;4183373;28;20235;-63
2022/10/16 04:29:47;;;;;;;2.63;2.43;;;;;;;28.17;43.00;99488.88;4179285;28;20276;-63
2022/10/16 04:31:49;;;;;;;3.60;2.70;;;;;;;28.22;43.15;99488.03;4186270;28;20432;-66
2022/10/16 04:33:50;;;;;;;6.70;2.73;;;;;;;27.63;43.66;99523.25;4177445;28;20736;-63
2022/10/16 04:35:59;;;;;;;5.83;2.70;;;;;;;26.74;45.08;99567.25;4181256;28;20377;-63
2022/10/16 04:38:00;;;;;;;4.80;3.10;;;;;;;26.64;45.74;99538.06;4160764;28;20233;-65
2022/10/16 04:40:02;;;;;;;4.00;2.47;;;;;;;27.23;44.77;99508.63;4166477;28;20226;-65
2022/10/16 04:42:04;;;;;;;6.23;2.67;;;;;;;27.52;44.48;99470.56;4169533;28;20615;-64
2022/10/16 04:44:06;;;;;;;4.87;2.63;;;;;;;26.40;46.04;99545.09;4177026;28;20230;-63
2022/10/16 04:46:07;;;;;;;4.47;2.70;;;;;;;25.75;47.73;99553.56;4168761;28;20235;-64
2022/10/16 04:48:09;;;;;;;3.70;2.63;;;;;;;25.26;48.17;99570.94;4169325;28;20262;-64
2022/10/16 04:50:10;;;;;;;4.13;2.47;;;;;;;27.06;45.46;99487.06;4168932;28;20223;-64
2022/10/16 04:52:13;;;;;;;7.53;2.80;;;;;;;27.19;45.01;99475.56;4172076;28;20315;-64
2022/10/16 04:54:15;;;;;;;5.53;2.70;;;;;;;26.53;46.59;99525.50;4170516;28;20232;-64
2022/10/16 04:56:16;;;;;;;3.37;2.33;;;;;;;26.28;46.48;99546.13;4172211;28;20232;-65
2022/10/16 04:58:18;;;;;;;4.17;2.37;;;;;;;25.90;47.50;99556.34;4178054;28;20318;-65
2022/10/16 05:00:20;;;;;;;4.77;2.30;;;;;;;27.05;45.31;99480.75;4169205;28;20306;-65
2022/10/16 05:02:21;;;;;;;4.60;3.10;;;;;;;27.14;44.98;99485.69;4180324;28;20695;-64
2022/10/16 05:04:23;;;;;;;3.57;2.73;;;;;;;27.83;44.03;99455.97;4190234;28;20226;-65
2022/10/16 05:06:25;;;;;;;3.17;2.70;;;;;;;26.63;45.54;99554.69;4181714;28;20258;-65
2022/10/16 05:08:26;;;;;;;9.13;2.80;;;;;;;25.62;46.82;99592.16;4195543;22;20384;-34
2022/10/16 05:10:28;;;;;;;3.97;2.90;;;;;;;27.14;45.33;99505.59;4175956;28;20927;-35
2022/10/16 05:12:30;;;;;;;7.23;2.67;;;;;;;27.39;44.62;99504.72;4142571;28;20926;-33
2022/10/16 05:14:31;;;;;;;3.00;2.70;;;;;;;27.61;43.93;99484.50;4148754;28;20255;-35
2022/10/16 05:16:33;;;;;;;5.27;2.57;;;;;;;26.50;45.72;99573.22;4170431;28;20784;-33
2022/10/16 05:18:35;;;;;;;3.30;2.80;;;;;;;27.30;44.42;99522.78;4165292;28;20262;-35
2022/10/16 05:20:36;;;;;;;4.37;2.30;;;;;;;25.80;47.35;99575.38;4168315;28;20894;-35
2022/10/16 05:22:38;;;;;;;3.30;2.63;;;;;;;27.39;44.68;99484.81;4126009;28;20240;-35
2022/10/16 05:24:40;;;;;;;3.00;2.70;;;;;;;26.90;45.57;99510.78;4140569;28;20263;-35
2022/10/16 05:26:41;;;;;;;4.57;2.73;;;;;;;26.47;46.07;99534.72;4143624;28;20635;-33
2022/10/16 05:28:43;;;;;;;3.97;2.67;;;;;;;26.25;46.57;99554.88;4159808;28;20332;-35
2022/10/16 05:30:45;;;;;;;6.40;3.10;;;;;;;27.38;44.55;99503.13;4134343;28;20246;-33
2022/10/16 05:32:48;;;;;;;3.43;2.37;;;;;;;27.96;43.48;99485.41;4152542;28;20258;-36
2022/10/16 05:34:50;;;;;;;5.67;3.43;;;;;;;28.11;43.03;99499.00;4136832;28;20267;-34
2022/10/16 05:36:52;;;;;;;5.93;3.10;;;;;;;27.93;43.66;99518.78;4139175;28;20245;-36
2022/10/16 05:38:54;;;;;;;5.13;2.70;;;;;;;26.04;46.12;99624.81;4163836;28;20231;-34
2022/10/16 05:40:56;;;;;;;3.73;2.73;;;;;;;27.25;44.46;99531.78;4160034;28;20380;-37
2022/10/16 05:42:58;;;;;;;4.27;3.70;;;;;;;27.34;44.83;99533.97;4153783;28;20375;-35
2022/10/16 05:45:00;;;;;;;4.57;3.23;;;;;;;26.09;46.21;99611.22;4149658;28;20252;-34
2022/10/16 05:47:01;;;;;;;7.43;2.57;;;;;;;25.95;46.71;99594.53;4154582;28;20289;-36
2022/10/16 05:49:03;;;;;;;5.97;3.13;;;;;;;26.77;45.96;99523.06;4171351;28;20259;-37
2022/10/16 05:51:08;;;;;;;7.03;2.97;;;;;;;24.62;49.04;99621.47;4151929;28;20436;-33
2022/10/16 05:53:10;;;;;;;5.37;2.80;;;;;;;23.90;50.32;99617.03;4153735;28;20322;-34
2022/10/16 05:55:12;;;;;;;4.40;2.40;;;;;;;23.55;51.59;99605.44;4156181;28;20698;-36
2022/10/16 05:57:13;;;;;;;4.30;2.50;;;;;;;24.71;49.97;99547.59;4131039;28;20316;-34
2022/10/16 05:59:15;;;;;;;8.80;2.77;;;;;;;24.11;50.78;99594.50;4151451;28;20246;-34
2022/10/16 06:01:20;;;;;;;5.83;2.43;;;;;;;23.95;50.44;99619.81;4152895;28;20250;-36
2022/10/16 06:03:22;;;;;;;7.57;3.13;;;;;;;23.58;51.53;99628.53;4154883;28;20236;-35
2022/10/16 06:05:26;;;;;;;7.23;2.93;;;;;;;23.65;51.42;99626.44;4141856;28;20270;-35
2022/10/16 06:07:27;;;;;;;4.37;2.60;;;;;;;24.13;49.79;99610.53;4124548;28;20272;-36
2022/10/16 06:09:29;;;;;;;7.30;3.27;;;;;;;23.58;51.76;99587.81;4140829;28;20227;-33
2022/10/16 06:11:33;;;;;;;3.43;2.80;;;;;;;23.13;52.19;99600.41;4161873;28;20234;-35
2022/10/16 06:13:35;;;;;;;4.67;2.73;;;;;;;24.06;51.22;99542.84;4153027;28;20674;-36
2022/10/16 06:15:38;;;;;;;5.93;3.20;;;;;;;24.58;50.11;99552.38;4124906;28;20259;-36
2022/10/16 06:17:40;;;;;;;6.00;3.47;;;;;;;24.21;50.84;99566.69;4140538;28;20266;-38
2022/10/16 06:19:42;;;;;;;3.50;3.20;;;;;;;23.86;51.33;99586.84;4168030;28;20730;-34
2022/10/16 06:21:44;;;;;;;5.03;2.97;;;;;;;23.55;51.98;99620.84;4166015;28;20319;-34
2022/10/16 06:23:46;;;;;;;3.80;2.97;;;;;;;25.04;49.51;99560.97;4156048;28;20708;-38
2022/10/16 06:25:47;;;;;;;5.47;2.63;;;;;;;23.66;51.59;99646.28;4156235;28;20232;-35
2022/10/16 06:27:49;;;;;;;5.93;2.90;;;;;;;26.20;47.70;99510.44;4170738;28;20243;-33
2022/10/16 06:29:51;;;;;;;3.47;2.60;;;;;;;24.20;50.70;99624.78;4139898;28;20315;-34
2022/10/16 06:31:52;;;;;;;6.77;2.67;;;;;;;24.46;50.04;99641.38;4163249;28;20263;-35
2022/10/16 06:33:54;;;;;;;6.37;2.67;;;;;;;24.21;51.36;99612.84;4160593;28;20535;-38
2022/10/16 06:36:06;;;;;;;4.67;2.30;;;;;;;24.72;48.93;99626.19;4145947;28;20263;-35
2022/10/16 06:38:07;;;;;;;2.57;2.37;;;;;;;23.62;51.55;99659.53;4147371;28;20492;-36
2022/10/16 06:40:09;;;;;;;5.87;2.83;;;;;;;22.90;53.06;99663.69;4122552;28;20532;-34
2022/10/16 06:42:11;;;;;;;6.07;2.60;;;;;;;25.30;48.87;99541.28;4155661;28;20244;-37
2022/10/16 06:44:12;;;;;;;5.27;2.80;;;;;;;23.51;51.77;99665.84;4153475;28;20318;-35
2022/10/16 06:46:17;;;;;;;7.83;3.07;;;;;;;24.20;50.61;99626.69;4147611;28;20261;-34
2022/10/16 06:48:19;;;;;;;5.37;2.90;;;;;;;22.79;53.01;99686.22;4159999;28;20791;-33
2022/10/16 06:50:20;;;;;;;4.27;2.43;;;;;;;23.16;52.05;99659.56;4172390;28;20262;-36
2022/10/16 06:52:22;;;;;;;9.17;3.00;;;;;;;23.93;51.91;99597.53;4138105;28;20247;-36
2022/10/16 06:54:24;;;;;;;4.53;2.83;;;;;;;22.84;53.26;99673.63;4148166;28;20235;-36
2022/10/16 06:56:27;;;;;;;6.80;2.60;;;;;;;23.93;50.98;99644.50;4136171;28;20732;-35
2022/10/16 06:58:30;;;;;;;4.50;2.67;;;;;;;24.47;51.06;99592.22;4147487;28;20250;-34
2022/10/16 07:00:31;;;;;;;5.50;2.90;;;;;;;23.47;51.79;99703.50;4130862;28;20532;-34
2022/10/16 07:02:33;;;;;;;4.63;2.93;;;;;;;24.62;50.29;99610.59;4149393;28;20662;-33
2022/10/16 07:04:36;;;;;;;3.90;2.70;;;;;;;25.14;49.08;99595.59;4149825;28;20265;-34
2022/10/16 07:06:38;;;;;;;3.87;2.57;;;;;;;24.02;51.02;99679.38;4154139;28;20669;-38
2022/10/16 07:08:42;;;;;;;3.60;2.37;;;;;;;24.81;49.47;99667.38;4161704;28;20712;-35
2022/10/16 07:10:44;;;;;;;4.33;2.33;;;;;;;22.90;52.39;99755.84;4143882;28;20232;-37
2022/10/16 07:12:45;;;;;;;7.33;2.50;;;;;;;23.35;51.65;99740.72;4147063;28;20544;-36
2022/10/16 07:14:47;;;;;;;4.17;2.20;;;;;;;24.17;50.89;99676.09;4164992;28;20259;-35
2022/10/16 07:16:49;;;;;;;6.73;2.47;;;;;;;26.41;46.82;99599.34;4153288;28;20315;-36
2022/10/16 07:18:52;;;;;;;3.73;2.60;;;;;;;27.23;45.13;99579.56;4158046;28;20256;-33
2022/10/16 07:21:03;;;;;;;4.90;3.00;;;;;;;27.29;44.55;99622.13;4151651;28;20231;-35
2022/10/16 07:23:05;;;;;;;3.63;2.67;;;;;;;27.08;45.17;99643.97;4136043;28;20252;-36
2022/10/16 07:25:07;;;;;;;4.20;2.97;;;;;;;27.26;44.36;99634.44;4153828;28;20652;-34
2022/10/16 07:27:09;;;;;;;4.17;2.63;;;;;;;26.56;46.03;99693.22;4152871;28;20847;-36
2022/10/16 07:29:19;;;;;;;6.10;3.20;;;;;;;26.92;45.46;99664.09;4152649;28;20262;-35
2022/10/16 07:31:21;;;;;;;7.07;3.43;;;;;;;26.46;46.40;99678.41;4155042;28;20251;-36
2022/10/16 07:33:23;;;;;;;5.50;4.23;;;;;;;25.46;48.17;99713.69;4170760;28;20731;-33
2022/10/16 07:35:24;;;;;;;6.27;3.67;;;;;;;26.84;45.67;99643.66;4161998;28;20519;-37
2022/10/16 07:37:26;;;;;;;5.63;3.20;;;;;;;27.17;45.13;99665.25;4167106;28;20223;-34
2022/10/16 07:39:28;;;;;;;7.67;3.10;;;;;;;27.79;43.87;99642.31;4158296;28;20567;-36
2022/10/16 07:41:32;;;;;;;4.70;3.03;;;;;;;27.93;43.55;99634.34;4149802;28;20298;-35
2022/10/16 07:43:34;;;;;;;5.43;3.00;;;;;;;25.81;46.79;99770.34;4144339;28;20235;-33
2022/10/16 07:45:35;;;;;;;9.63;3.07;;;;;;;26.19;47.60;99715.91;4148880;28;20645;-34
2022/10/16 07:47:37;;;;;;;4.60;2.60;;;;;;;27.36;44.66;99651.88;4159051;28;20317;-35
2022/10/16 07:49:38;;;;;;;5.67;2.97;;;;;;;27.52;44.32;99667.16;4144903;28;20227;-36
2022/10/16 07:51:40;;;;;;;7.73;3.20;;;;;;;27.06;45.13;99705.34;4152231;28;20208;-35
2022/10/16 07:53:42;;;;;;;4.93;3.33;;;;;;;26.02;46.20;99776.00;4152411;28;20363;-37
2022/10/16 07:55:43;;;;;;;7.37;2.70;;;;;;;24.97;48.15;99802.44;4151243;28;20324;-36
2022/10/16 07:57:45;;;;;;;4.97;2.50;;;;;;;24.43;49.94;99807.66;4150707;28;20232;-34
2022/10/16 07:59:47;;;;;;;6.63;2.47;;;;;;;25.95;47.84;99687.16;4151922;28;20239;-35
2022/10/16 08:01:49;;;;;;;8.33;2.60;;;;;;;24.21;49.83;99794.88;4155589;28;20265;-35
2022/10/16 08:03:52;;;;;;;3.27;2.33;;;;;;;25.18;49.51;99705.53;4147478;28;20230;-34
2022/10/16 08:05:54;;;;;;;4.80;2.40;;;;;;;26.15;47.93;99659.19;4151993;28;20248;-33
2022/10/16 08:07:56;;;;;;;6.30;2.57;;;;;;;24.42;49.57;99787.00;4156277;28;20271;-37
2022/10/16 08:09:58;;;;;;;9.33;2.63;;;;;;;25.98;47.65;99683.06;4148860;28;20274;-36
2022/10/16 08:12:00;;;;;;;3.83;2.13;;;;;;;25.77;47.61;99698.44;4136213;28;20228;-37
2022/10/16 08:14:03;;;;;;;5.50;2.33;;;;;;;27.50;45.02;99592.06;4159896;28;20258;-35
2022/10/16 08:16:09;;;;;;;4.07;2.30;;;;;;;26.51;46.04;99703.00;4136605;28;20229;-35
2022/10/16 08:18:12;;;;;;;4.53;2.33;;;;;;;27.84;44.50;99621.50;4157457;28;20551;-34
2022/10/16 08:20:14;;;;;;;2.80;2.27;;;;;;;27.71;44.09;99640.13;4160694;28;20349;-34
2022/10/16 08:22:15;;;;;;;6.43;2.63;;;;;;;27.74;44.21;99657.91;4137534;28;20256;-33
2022/10/16 08:24:17;;;;;;;4.83;2.60;;;;;;;28.16;43.36;99638.41;4154237;28;20262;-37
2022/10/16 08:26:19;;;;;;;3.50;2.20;;;;;;;28.22;43.66;99646.56;4158896;28;20544;-34
2022/10/16 08:28:22;;;;;;;2.60;2.40;;;;;;;28.10;43.87;99676.91;4165084;28;20692;-37
2022/10/16 08:30:24;;;;;;;3.70;2.20;;;;;;;27.38;44.57;99731.59;4158662;28;20292;-33
2022/10/16 08:32:26;;;;;;;6.13;2.60;;;;;;;28.26;43.50;99667.59;4128832;28;20232;-34
2022/10/16 08:34:28;;;;;;;4.67;2.40;;;;;;;27.36;44.21;99755.63;4145325;28;20228;-33
2022/10/16 08:36:29;;;;;;;8.80;2.60;;;;;;;27.91;44.15;99715.75;4140134;28;20427;-33
2022/10/16 08:38:31;;;;;;;5.20;2.37;;;;;;;27.53;44.14;99741.72;4143475;28;20255;-38
2022/10/16 08:40:36;;;;;;;3.47;2.80;;;;;;;27.76;44.30;99724.78;4153288;28;20754;-35
2022/10/16 08:42:38;;;;;;;3.80;2.50;;;;;;;27.86;44.11;99704.84;4140293;28;20252;-35
2022/10/16 08:44:58;;;;;;;6.33;2.40;;;;;;;28.06;43.83;99714.13;4149666;28;20336;-37
2022/10/16 08:47:16;;;;;;;4.83;2.77;;;;;;;28.98;43.06;99655.47;4123431;28;20271;-37
2022/10/16 08:49:18;;;;;;;4.17;2.23;;;;;;;28.13;44.10;99722.84;4156091;28;20235;-33
2022/10/16 08:51:34;;;;;;;8.67;2.60;;;;;;;28.40;44.05;99718.97;4147417;28;20635;-33
2022/10/16 08:53:59;;;;;;;5.43;2.63;;;;;;;28.33;43.97;99711.88;4135253;28;20260;-35
2022/10/16 08:56:00;;;;;;;6.00;2.40;;;;;;;28.08;44.54;99725.59;4138918;28;20263;-33
2022/10/16 08:58:14;;;;;;;3.67;2.10;;;;;;;27.84;44.65;99744.44;4153648;28;20365;-33
2022/10/16 09:00:16;;;;;;;3.63;2.77;;;;;;;27.47;44.29;99764.66;4149522;28;20306;-35
2022/10/16 09:02:30;;;;;;;3.93;2.40;;;;;;;28.20;44.34;99697.97;4121754;28;20271;-35
2022/10/16 09:04:44;;;;;;;6.37;2.40;;;;;;;28.32;43.92;99712.94;4150326;28;20227;-33
2022/10/16 09:06:50;;;;;;;6.73;3.10;;;;;;;28.09;44.42;99741.72;4143240;28;20301;-33
2022/10/16 09:09:03;;;;;;;8.33;2.50;;;;;;;28.63;43.55;99701.06;4141789;28;20963;-36
2022/10/16 09:11:05;;;;;;;4.23;2.53;;;;;;;27.76;44.45;99770.44;4126115;28;20269;-36
2022/10/16 09:13:18;;;;;;;5.13;2.60;;;;;;;28.27;43.82;99748.50;4142224;28;20661;-34
2022/10/16 09:15:47;;;;;;;2.83;2.40;;;;;;;29.02;42.80;99705.81;4146314;28;20835;-34
2022/10/16 09:18:01;;;;;;;5.37;2.87;;;;;;;28.12;43.99;99773.13;4142850;28;20315;-34
2022/10/16 09:20:17;;;;;;;5.97;2.73;;;;;;;27.71;44.00;99787.63;4156098;28;20306;-35
2022/10/16 09:22:25;;;;;;;6.00;2.60;;;;;;;28.37;43.69;99723.88;4160014;28;20231;-39
2022/10/16 09:24:27;;;;;;;3.60;2.70;;;;;;;27.96;43.90;99770.41;4148382;28;20251;-34
2022/10/16 09:26:29;;;;;;;4.23;2.77;;;;;;;27.61;44.70;99790.34;4160556;28;20316;-34
2022/10/16 09:28:31;;;;;;;4.17;2.50;;;;;;;28.34;43.64;99743.59;4149498;28;20739;-35
2022/10/16 09:30:33;;;;;;;3.00;2.70;;;;;;;28.21;44.20;99746.91;4151424;28;20746;-39
2022/10/16 09:32:35;;;;;;;7.73;2.83;;;;;;;28.18;43.92;99756.47;4133849;28;20252;-34
2022/10/16 09:34:42;;;;;;;3.83;2.77;;;;;;;27.83;44.83;99787.34;4157076;28;20558;-34
2022/10/16 09:36:46;;;;;;;4.47;3.37;;;;;;;28.90;43.19;99728.88;4165342;28;20500;-36
2022/10/16 09:38:49;;;;;;;5.00;2.23;;;;;;;28.80;42.96;99736.31;4157365;28;20224;-35
2022/10/16 09:40:52;;;;;;;5.43;2.55;;;;;;;28.63;43.29;99750.31;4154001;28;20239;-34
2022/10/16 09:43:21;;;;;;;4.13;2.40;;;;;;;28.51;43.55;99759.66;4133533;28;20258;-36
2022/10/16 09:45:24;;;;;;;5.00;2.40;;;;;;;28.96;43.26;99737.84;4120338;28;20252;-36